WXM80 ListenWXM80 Stop

You find our weather info also at:

UK Metoffice

WeatherCloud

Weather Underground

Northeastern Weather Network

AWEKAS

Citizen Weather Observer Program (CWOP)

HAMweather, WeatherForYou, PWS Weather


Weather Underground History page Text

Daily Summary for February 6, 2017 Units:  Both    English   Metric
« Previous Day
Next Day »
Daily Weekly Monthly Yearly Custom
  High: Low: Average:
Temperature: 44.7 °F /  7.1 °C 35.9 °F /  2.2 °C 40.1 °F /  4.5 °C
Dew Point: 35.2 °F /  1.8 °C 19.6 °F /  -6.9 °C 26 °F /  -3.3 °C
Humidity: 87 % 41 % 58 %
Wind Speed: 11.3 mph /  18.2 km/h - 4.3 mph /  6.9 km/h
Wind Gust: 22.0 mph /  35.4 km/h - -
Wind:- - West
Pressure: 30.12 in /  1019.9 hPa 29.87 in /  1011.4 hPa -
Precipitation: 0.00 in /  0 mm    
Historical Graphs
 
 
Tabular Data for February 6, 2017
Time Temperature Dew Point Pressure Wind Wind Speed Wind Gust Humidity Rainfall Rate (Hourly)
00:00 42.6 °F /  5.9 °C 27.1 °F /  -2.7 °C 29.87 in /  1011.4 hPa WNW 5.2 mph /  8.4 km/h 9.2 mph /  14.8 km/h 54 % 0.00 in /  0 mm
00:05 42.6 °F /  5.9 °C 27.1 °F /  -2.7 °C 29.87 in /  1011.4 hPa WNW 7.6 mph /  12.2 km/h 12.7 mph /  20.4 km/h 54 % 0.00 in /  0 mm
00:10 42.5 °F /  5.8 °C 27.0 °F /  -2.8 °C 29.87 in /  1011.4 hPa West 8.9 mph /  14.3 km/h 9.2 mph /  14.8 km/h 54 % 0.00 in /  0 mm
00:15 42.5 °F /  5.8 °C 27.0 °F /  -2.8 °C 29.88 in /  1011.7 hPa WSW 6.6 mph /  10.6 km/h 17.3 mph /  27.8 km/h 54 % 0.00 in /  0 mm
00:20 42.4 °F /  5.8 °C 26.9 °F /  -2.8 °C 29.88 in /  1011.7 hPa WSW 6.4 mph /  10.3 km/h 10.4 mph /  16.7 km/h 54 % 0.00 in /  0 mm
00:25 42.4 °F /  5.8 °C 26.9 °F /  -2.8 °C 29.88 in /  1011.7 hPa WSW 6.5 mph /  10.5 km/h 12.0 mph /  19.3 km/h 54 % 0.00 in /  0 mm
00:30 42.3 °F /  5.7 °C 26.8 °F /  -2.9 °C 29.88 in /  1011.7 hPa WNW 8.7 mph /  14 km/h 12.7 mph /  20.4 km/h 54 % 0.00 in /  0 mm
00:35 42.3 °F /  5.7 °C 26.8 °F /  -2.9 °C 29.88 in /  1011.7 hPa WSW 6.9 mph /  11.1 km/h 12.7 mph /  20.4 km/h 54 % 0.00 in /  0 mm
00:40 42.2 °F /  5.7 °C 26.7 °F /  -2.9 °C 29.88 in /  1011.7 hPa WSW 8.1 mph /  13 km/h 16.1 mph /  25.9 km/h 54 % 0.00 in /  0 mm
00:46 42.2 °F /  5.7 °C 27.2 °F /  -2.7 °C 29.88 in /  1011.7 hPa West 2.8 mph /  4.5 km/h 11.5 mph /  18.5 km/h 55 % 0.00 in /  0 mm
00:52 42.0 °F /  5.6 °C 27.0 °F /  -2.8 °C 29.88 in /  1011.7 hPa WNW 9.2 mph /  14.8 km/h 11.5 mph /  18.5 km/h 55 % 0.00 in /  0 mm
00:57 42.0 °F /  5.6 °C 27.0 °F /  -2.8 °C 29.88 in /  1011.7 hPa North 4.0 mph /  6.4 km/h 10.4 mph /  16.7 km/h 55 % 0.00 in /  0 mm
01:02 41.9 °F /  5.5 °C 26.9 °F /  -2.8 °C 29.88 in /  1011.7 hPa WSW 5.4 mph /  8.7 km/h 11.0 mph /  17.7 km/h 55 % 0.00 in /  0 mm
01:07 41.8 °F /  5.4 °C 27.2 °F /  -2.7 °C 29.88 in /  1011.7 hPa West 3.4 mph /  5.5 km/h 9.2 mph /  14.8 km/h 56 % 0.00 in /  0 mm
01:12 41.7 °F /  5.4 °C 27.6 °F /  -2.4 °C 29.88 in /  1011.7 hPa West 3.4 mph /  5.5 km/h 15.0 mph /  24.1 km/h 57 % 0.00 in /  0 mm
01:17 41.7 °F /  5.4 °C 27.6 °F /  -2.4 °C 29.88 in /  1011.7 hPa NW 6.2 mph /  10 km/h 10.4 mph /  16.7 km/h 57 % 0.00 in /  0 mm
01:22 41.6 °F /  5.3 °C 27.5 °F /  -2.5 °C 29.88 in /  1011.7 hPa South 4.6 mph /  7.4 km/h 9.2 mph /  14.8 km/h 57 % 0.00 in /  0 mm
01:27 41.5 °F /  5.3 °C 27.8 °F /  -2.3 °C 29.89 in /  1012.1 hPa NW 3.7 mph /  6 km/h 8.1 mph /  13 km/h 58 % 0.00 in /  0 mm
01:32 41.4 °F /  5.2 °C 27.7 °F /  -2.4 °C 29.89 in /  1012.1 hPa WNW 3.3 mph /  5.3 km/h 9.2 mph /  14.8 km/h 58 % 0.00 in /  0 mm
01:42 41.3 °F /  5.2 °C 27.2 °F /  -2.7 °C 29.89 in /  1012.1 hPa West 3.5 mph /  5.6 km/h 6.9 mph /  11.1 km/h 57 % 0.00 in /  0 mm
01:47 41.3 °F /  5.2 °C 26.8 °F /  -2.9 °C 29.89 in /  1012.1 hPa West 6.0 mph /  9.7 km/h 11.5 mph /  18.5 km/h 56 % 0.00 in /  0 mm
01:52 41.2 °F /  5.1 °C 27.1 °F /  -2.7 °C 29.89 in /  1012.1 hPa West 3.8 mph /  6.1 km/h 8.1 mph /  13 km/h 57 % 0.00 in /  0 mm
01:57 41.1 °F /  5.1 °C 27.0 °F /  -2.8 °C 29.90 in /  1012.4 hPa NNW 3.3 mph /  5.3 km/h 6.9 mph /  11.1 km/h 57 % 0.00 in /  0 mm
02:02 41.1 °F /  5.1 °C 27.0 °F /  -2.8 °C 29.90 in /  1012.4 hPa WSW 7.8 mph /  12.6 km/h 13.8 mph /  22.2 km/h 57 % 0.00 in /  0 mm
02:07 41.0 °F /  5 °C 26.9 °F /  -2.8 °C 29.90 in /  1012.4 hPa WNW 7.1 mph /  11.4 km/h 14.0 mph /  22.5 km/h 57 % 0.00 in /  0 mm
02:12 40.9 °F /  4.9 °C 26.8 °F /  -2.9 °C 29.90 in /  1012.4 hPa WNW 7.9 mph /  12.7 km/h 11.5 mph /  18.5 km/h 57 % 0.00 in /  0 mm
02:17 40.9 °F /  4.9 °C 26.4 °F /  -3.1 °C 29.90 in /  1012.4 hPa West 9.3 mph /  15 km/h 18.4 mph /  29.6 km/h 56 % 0.00 in /  0 mm
02:22 40.8 °F /  4.9 °C 26.3 °F /  -3.2 °C 29.91 in /  1012.8 hPa WNW 9.0 mph /  14.5 km/h 13.8 mph /  22.2 km/h 56 % 0.00 in /  0 mm
02:27 40.7 °F /  4.8 °C 26.2 °F /  -3.2 °C 29.91 in /  1012.8 hPa West 9.6 mph /  15.4 km/h 15.0 mph /  24.1 km/h 56 % 0.00 in /  0 mm
02:32 40.6 °F /  4.8 °C 26.1 °F /  -3.3 °C 29.92 in /  1013.1 hPa West 9.3 mph /  15 km/h 19.6 mph /  31.5 km/h 56 % 0.00 in /  0 mm
02:37 40.5 °F /  4.7 °C 26.0 °F /  -3.3 °C 29.92 in /  1013.1 hPa NW 9.7 mph /  15.6 km/h 14.0 mph /  22.5 km/h 56 % 0.00 in /  0 mm
02:42 40.4 °F /  4.7 °C 25.5 °F /  -3.6 °C 29.92 in /  1013.1 hPa WNW 10.1 mph /  16.3 km/h 12.7 mph /  20.4 km/h 55 % 0.00 in /  0 mm
02:47 40.4 °F /  4.7 °C 25.5 °F /  -3.6 °C 29.92 in /  1013.1 hPa WNW 8.7 mph /  14 km/h 13.8 mph /  22.2 km/h 55 % 0.00 in /  0 mm
02:52 40.2 °F /  4.6 °C 24.9 °F /  -3.9 °C 29.92 in /  1013.1 hPa NW 11.3 mph /  18.2 km/h 22.0 mph /  35.4 km/h 54 % 0.00 in /  0 mm
02:57 40.1 °F /  4.5 °C 24.8 °F /  -4 °C 29.92 in /  1013.1 hPa NW 7.5 mph /  12.1 km/h 16.1 mph /  25.9 km/h 54 % 0.00 in /  0 mm
03:03 40.0 °F /  4.4 °C 25.1 °F /  -3.8 °C 29.93 in /  1013.4 hPa WNW 3.1 mph /  5 km/h 10.4 mph /  16.7 km/h 55 % 0.00 in /  0 mm
03:08 39.9 °F /  4.4 °C 25.5 °F /  -3.6 °C 29.94 in /  1013.8 hPa WSW 9.7 mph /  15.6 km/h 19.6 mph /  31.5 km/h 56 % 0.00 in /  0 mm
03:13 39.8 °F /  4.3 °C 25.4 °F /  -3.7 °C 29.94 in /  1013.8 hPa WNW 5.6 mph /  9 km/h 16.1 mph /  25.9 km/h 56 % 0.00 in /  0 mm
03:18 39.7 °F /  4.3 °C 24.4 °F /  -4.2 °C 29.95 in /  1014.1 hPa NNE 11.1 mph /  17.9 km/h 19.6 mph /  31.5 km/h 54 % 0.00 in /  0 mm
03:23 39.6 °F /  4.2 °C 24.3 °F /  -4.3 °C 29.95 in /  1014.1 hPa WNW 6.7 mph /  10.8 km/h 15.0 mph /  24.1 km/h 54 % 0.00 in /  0 mm
03:28 39.5 °F /  4.2 °C 23.8 °F /  -4.6 °C 29.96 in /  1014.4 hPa WNW 8.9 mph /  14.3 km/h 17.3 mph /  27.8 km/h 53 % 0.00 in /  0 mm
03:33 39.5 °F /  4.2 °C 23.8 °F /  -4.6 °C 29.96 in /  1014.4 hPa West 9.1 mph /  14.6 km/h 17.0 mph /  27.4 km/h 53 % 0.00 in /  0 mm
03:38 39.4 °F /  4.1 °C 23.2 °F /  -4.9 °C 29.96 in /  1014.4 hPa WNW 9.8 mph /  15.8 km/h 18.4 mph /  29.6 km/h 52 % 0.00 in /  0 mm
03:43 39.3 °F /  4.1 °C 23.6 °F /  -4.7 °C 29.96 in /  1014.4 hPa WNW 6.3 mph /  10.1 km/h 17.3 mph /  27.8 km/h 53 % 0.00 in /  0 mm
03:48 39.2 °F /  4 °C 23.5 °F /  -4.7 °C 29.96 in /  1014.4 hPa WNW 8.7 mph /  14 km/h 19.6 mph /  31.5 km/h 53 % 0.00 in /  0 mm
03:53 39.2 °F /  4 °C 23.0 °F /  -5 °C 29.96 in /  1014.4 hPa NW 6.6 mph /  10.6 km/h 15.0 mph /  24.1 km/h 52 % 0.00 in /  0 mm
03:58 39.2 °F /  4 °C 23.0 °F /  -5 °C 29.97 in /  1014.8 hPa West 5.2 mph /  8.4 km/h 13.8 mph /  22.2 km/h 52 % 0.00 in /  0 mm
04:03 39.2 °F /  4 °C 23.5 °F /  -4.7 °C 29.96 in /  1014.4 hPa WNW 6.0 mph /  9.7 km/h 9.2 mph /  14.8 km/h 53 % 0.00 in /  0 mm
04:08 39.2 °F /  4 °C 23.0 °F /  -5 °C 29.96 in /  1014.4 hPa NW 7.5 mph /  12.1 km/h 13.0 mph /  20.9 km/h 52 % 0.00 in /  0 mm
04:13 39.2 °F /  4 °C 23.5 °F /  -4.7 °C 29.97 in /  1014.8 hPa WNW 3.4 mph /  5.5 km/h 8.1 mph /  13 km/h 53 % 0.00 in /  0 mm
04:18 39.2 °F /  4 °C 23.5 °F /  -4.7 °C 29.97 in /  1014.8 hPa West 4.4 mph /  7.1 km/h 10.4 mph /  16.7 km/h 53 % 0.00 in /  0 mm
04:23 39.2 °F /  4 °C 23.9 °F /  -4.5 °C 29.97 in /  1014.8 hPa West 6.8 mph /  10.9 km/h 12.0 mph /  19.3 km/h 54 % 0.00 in /  0 mm
04:28 39.1 °F /  3.9 °C 23.4 °F /  -4.8 °C 29.97 in /  1014.8 hPa West 6.6 mph /  10.6 km/h 18.4 mph /  29.6 km/h 53 % 0.00 in /  0 mm
04:33 39.2 °F /  4 °C 23.9 °F /  -4.5 °C 29.97 in /  1014.8 hPa West 3.9 mph /  6.3 km/h 10.4 mph /  16.7 km/h 54 % 0.00 in /  0 mm
04:38 39.1 °F /  3.9 °C 23.8 °F /  -4.6 °C 29.97 in /  1014.8 hPa WNW 6.4 mph /  10.3 km/h 15.0 mph /  24.1 km/h 54 % 0.00 in /  0 mm
04:43 39.1 °F /  3.9 °C 24.3 °F /  -4.3 °C 29.97 in /  1014.8 hPa NW 5.4 mph /  8.7 km/h 11.5 mph /  18.5 km/h 55 % 0.00 in /  0 mm
04:48 39.0 °F /  3.9 °C 24.2 °F /  -4.3 °C 29.97 in /  1014.8 hPa WNW 5.0 mph /  8 km/h 14.0 mph /  22.5 km/h 55 % 0.00 in /  0 mm
04:53 38.9 °F /  3.8 °C 24.1 °F /  -4.4 °C 29.98 in /  1015.1 hPa WNW 4.8 mph /  7.7 km/h 11.5 mph /  18.5 km/h 55 % 0.00 in /  0 mm
04:58 38.9 °F /  3.8 °C 24.5 °F /  -4.2 °C 29.98 in /  1015.1 hPa NW 5.8 mph /  9.3 km/h 10.4 mph /  16.7 km/h 56 % 0.00 in /  0 mm
05:03 38.8 °F /  3.8 °C 24.4 °F /  -4.2 °C 29.98 in /  1015.1 hPa West 3.7 mph /  6 km/h 12.7 mph /  20.4 km/h 56 % 0.00 in /  0 mm
05:08 38.8 °F /  3.8 °C 24.4 °F /  -4.2 °C 29.98 in /  1015.1 hPa WNW 4.7 mph /  7.6 km/h 7.0 mph /  11.3 km/h 56 % 0.00 in /  0 mm
05:13 38.7 °F /  3.7 °C 24.3 °F /  -4.3 °C 29.98 in /  1015.1 hPa WSW 5.9 mph /  9.5 km/h 9.2 mph /  14.8 km/h 56 % 0.00 in /  0 mm
05:19 38.7 °F /  3.7 °C 24.3 °F /  -4.3 °C 29.98 in /  1015.1 hPa West 6.2 mph /  10 km/h 13.8 mph /  22.2 km/h 56 % 0.00 in /  0 mm
05:24 38.6 °F /  3.7 °C 24.2 °F /  -4.3 °C 29.98 in /  1015.1 hPa West 6.9 mph /  11.1 km/h 11.5 mph /  18.5 km/h 56 % 0.00 in /  0 mm
05:29 38.5 °F /  3.6 °C 24.6 °F /  -4.1 °C 29.99 in /  1015.5 hPa WSW 5.0 mph /  8 km/h 10.4 mph /  16.7 km/h 57 % 0.00 in /  0 mm
05:34 38.4 °F /  3.6 °C 24.5 °F /  -4.2 °C 29.99 in /  1015.5 hPa NW 5.0 mph /  8 km/h 8.1 mph /  13 km/h 57 % 0.00 in /  0 mm
05:39 38.3 °F /  3.5 °C 24.4 °F /  -4.2 °C 29.99 in /  1015.5 hPa West 7.2 mph /  11.6 km/h 11.5 mph /  18.5 km/h 57 % 0.00 in /  0 mm
05:44 38.3 °F /  3.5 °C 24.8 °F /  -4 °C 30.00 in /  1015.8 hPa West 6.9 mph /  11.1 km/h 11.5 mph /  18.5 km/h 58 % 0.00 in /  0 mm
05:49 38.2 °F /  3.4 °C 24.7 °F /  -4.1 °C 30.00 in /  1015.8 hPa WNW 7.9 mph /  12.7 km/h 11.5 mph /  18.5 km/h 58 % 0.00 in /  0 mm
05:54 38.2 °F /  3.4 °C 25.5 °F /  -3.6 °C 30.01 in /  1016.1 hPa NNW 3.4 mph /  5.5 km/h 11.0 mph /  17.7 km/h 60 % 0.00 in /  0 mm
05:59 38.1 °F /  3.4 °C 26.6 °F /  -3 °C 30.01 in /  1016.1 hPa NW 7.4 mph /  11.9 km/h 11.5 mph /  18.5 km/h 63 % 0.00 in /  0 mm
06:04 38.0 °F /  3.3 °C 26.1 °F /  -3.3 °C 30.02 in /  1016.5 hPa WNW 7.7 mph /  12.4 km/h 12.7 mph /  20.4 km/h 62 % 0.00 in /  0 mm
06:09 37.9 °F /  3.3 °C 26.4 °F /  -3.1 °C 30.02 in /  1016.5 hPa NW 5.4 mph /  8.7 km/h 11.5 mph /  18.5 km/h 63 % 0.00 in /  0 mm
06:14 37.8 °F /  3.2 °C 26.7 °F /  -2.9 °C 30.03 in /  1016.8 hPa NNW 3.8 mph /  6.1 km/h 6.9 mph /  11.1 km/h 64 % 0.00 in /  0 mm
06:19 37.8 °F /  3.2 °C 27.1 °F /  -2.7 °C 30.03 in /  1016.8 hPa NW 5.7 mph /  9.2 km/h 9.2 mph /  14.8 km/h 65 % 0.00 in /  0 mm
06:24 37.7 °F /  3.2 °C 27.0 °F /  -2.8 °C 30.03 in /  1016.8 hPa WNW 6.6 mph /  10.6 km/h 11.5 mph /  18.5 km/h 65 % 0.00 in /  0 mm
06:29 37.5 °F /  3.1 °C 26.4 °F /  -3.1 °C 30.03 in /  1016.8 hPa NW 7.2 mph /  11.6 km/h 13.8 mph /  22.2 km/h 64 % 0.00 in /  0 mm
06:34 37.4 °F /  3 °C 25.9 °F /  -3.4 °C 30.03 in /  1016.8 hPa WNW 8.8 mph /  14.2 km/h 16.1 mph /  25.9 km/h 63 % 0.00 in /  0 mm
06:39 37.2 °F /  2.9 °C 24.2 °F /  -4.3 °C 30.03 in /  1016.8 hPa WNW 10.3 mph /  16.6 km/h 16.1 mph /  25.9 km/h 59 % 0.00 in /  0 mm
06:44 37.1 °F /  2.8 °C 23.7 °F /  -4.6 °C 30.03 in /  1016.8 hPa WSW 6.8 mph /  10.9 km/h 13.8 mph /  22.2 km/h 58 % 0.00 in /  0 mm
06:49 37.0 °F /  2.8 °C 23.6 °F /  -4.7 °C 30.04 in /  1017.2 hPa NW 10.0 mph /  16.1 km/h 10.4 mph /  16.7 km/h 58 % 0.00 in /  0 mm
06:54 36.8 °F /  2.7 °C 21.7 °F /  -5.7 °C 30.04 in /  1017.2 hPa West 9.9 mph /  15.9 km/h 18.4 mph /  29.6 km/h 54 % 0.00 in /  0 mm
06:59 36.6 °F /  2.6 °C 21.5 °F /  -5.8 °C 30.04 in /  1017.2 hPa NNW 6.8 mph /  10.9 km/h 16.1 mph /  25.9 km/h 54 % 0.00 in /  0 mm
07:04 36.4 °F /  2.4 °C 21.3 °F /  -5.9 °C 30.05 in /  1017.5 hPa WNW 6.0 mph /  9.7 km/h 12.0 mph /  19.3 km/h 54 % 0.00 in /  0 mm
07:09 36.3 °F /  2.4 °C 21.7 °F /  -5.7 °C 30.05 in /  1017.5 hPa NW 5.7 mph /  9.2 km/h 10.4 mph /  16.7 km/h 55 % 0.00 in /  0 mm
07:14 36.2 °F /  2.3 °C 21.1 °F /  -6.1 °C 30.05 in /  1017.5 hPa NW 6.5 mph /  10.5 km/h 13.0 mph /  20.9 km/h 54 % 0.00 in /  0 mm
07:20 36.1 °F /  2.3 °C 21.5 °F /  -5.8 °C 30.05 in /  1017.5 hPa WNW 4.8 mph /  7.7 km/h 11.0 mph /  17.7 km/h 55 % 0.00 in /  0 mm
07:25 36.0 °F /  2.2 °C 20.9 °F /  -6.2 °C 30.04 in /  1017.2 hPa NW 5.0 mph /  8 km/h 11.5 mph /  18.5 km/h 54 % 0.00 in /  0 mm
07:30 36.0 °F /  2.2 °C 21.4 °F /  -5.9 °C 30.05 in /  1017.5 hPa NW 5.9 mph /  9.5 km/h 11.5 mph /  18.5 km/h 55 % 0.00 in /  0 mm
07:35 35.9 °F /  2.2 °C 20.9 °F /  -6.2 °C 30.05 in /  1017.5 hPa WNW 4.9 mph /  7.9 km/h 9.2 mph /  14.8 km/h 54 % 0.00 in /  0 mm
07:40 35.9 °F /  2.2 °C 20.9 °F /  -6.2 °C 30.06 in /  1017.8 hPa West 3.9 mph /  6.3 km/h 9.2 mph /  14.8 km/h 54 % 0.00 in /  0 mm
07:45 35.9 °F /  2.2 °C 20.9 °F /  -6.2 °C 30.06 in /  1017.8 hPa WNW 3.7 mph /  6 km/h 8.1 mph /  13 km/h 54 % 0.00 in /  0 mm
07:50 35.9 °F /  2.2 °C 20.9 °F /  -6.2 °C 30.07 in /  1018.2 hPa NW 7.3 mph /  11.7 km/h 11.5 mph /  18.5 km/h 54 % 0.00 in /  0 mm
07:55 35.9 °F /  2.2 °C 20.4 °F /  -6.4 °C 30.07 in /  1018.2 hPa West 4.9 mph /  7.9 km/h 11.5 mph /  18.5 km/h 53 % 0.00 in /  0 mm
08:00 36.0 °F /  2.2 °C 20.5 °F /  -6.4 °C 30.07 in /  1018.2 hPa WNW 3.4 mph /  5.5 km/h 11.5 mph /  18.5 km/h 53 % 0.00 in /  0 mm
08:05 36.0 °F /  2.2 °C 20.5 °F /  -6.4 °C 30.07 in /  1018.2 hPa WNW 4.0 mph /  6.4 km/h 9.0 mph /  14.5 km/h 53 % 0.00 in /  0 mm
08:10 36.1 °F /  2.3 °C 20.2 °F /  -6.6 °C 30.08 in /  1018.5 hPa West 4.9 mph /  7.9 km/h 8.1 mph /  13 km/h 52 % 0.00 in /  0 mm
08:15 36.2 °F /  2.3 °C 20.2 °F /  -6.6 °C 30.08 in /  1018.5 hPa West 5.6 mph /  9 km/h 8.1 mph /  13 km/h 52 % 0.00 in /  0 mm
08:20 36.4 °F /  2.4 °C 20.4 °F /  -6.4 °C 30.08 in /  1018.5 hPa WSW 5.3 mph /  8.5 km/h 9.2 mph /  14.8 km/h 52 % 0.00 in /  0 mm
08:25 36.6 °F /  2.6 °C 20.6 °F /  -6.3 °C 30.08 in /  1018.5 hPa WNW 4.0 mph /  6.4 km/h 8.1 mph /  13 km/h 52 % 0.00 in /  0 mm
08:30 36.7 °F /  2.6 °C 20.3 °F /  -6.5 °C 30.08 in /  1018.5 hPa West 6.0 mph /  9.7 km/h 12.0 mph /  19.3 km/h 51 % 0.00 in /  0 mm
08:35 36.8 °F /  2.7 °C 19.9 °F /  -6.7 °C 30.08 in /  1018.5 hPa West 3.3 mph /  5.3 km/h 11.5 mph /  18.5 km/h 50 % 0.00 in /  0 mm
08:40 36.9 °F /  2.7 °C 20.0 °F /  -6.7 °C 30.08 in /  1018.5 hPa NW 6.8 mph /  10.9 km/h 10.4 mph /  16.7 km/h 50 % 0.00 in /  0 mm
08:45 37.1 °F /  2.8 °C 20.2 °F /  -6.6 °C 30.09 in /  1018.8 hPa WNW 3.5 mph /  5.6 km/h 8.1 mph /  13 km/h 50 % 0.00 in /  0 mm
08:50 37.3 °F /  2.9 °C 20.3 °F /  -6.5 °C 30.10 in /  1019.2 hPa West 6.6 mph /  10.6 km/h 11.5 mph /  18.5 km/h 50 % 0.00 in /  0 mm
08:55 37.5 °F /  3.1 °C 19.6 °F /  -6.9 °C 30.11 in /  1019.5 hPa WNW 10.9 mph /  17.5 km/h 19.6 mph /  31.5 km/h 48 % 0.00 in /  0 mm
09:00 37.7 °F /  3.2 °C 20.2 °F /  -6.6 °C 30.11 in /  1019.5 hPa West 7.4 mph /  11.9 km/h 11.0 mph /  17.7 km/h 49 % 0.00 in /  0 mm
09:05 38.0 °F /  3.3 °C 20.0 °F /  -6.7 °C 30.11 in /  1019.5 hPa WNW 9.1 mph /  14.6 km/h 12.7 mph /  20.4 km/h 48 % 0.00 in /  0 mm
09:10 38.1 °F /  3.4 °C 20.1 °F /  -6.6 °C 30.11 in /  1019.5 hPa West 6.7 mph /  10.8 km/h 18.4 mph /  29.6 km/h 48 % 0.00 in /  0 mm
09:15 38.2 °F /  3.4 °C 20.7 °F /  -6.3 °C 30.11 in /  1019.5 hPa NW 9.1 mph /  14.6 km/h 16.1 mph /  25.9 km/h 49 % 0.00 in /  0 mm
09:21 38.4 °F /  3.6 °C 20.4 °F /  -6.4 °C 30.11 in /  1019.5 hPa WNW 10.8 mph /  17.4 km/h 19.6 mph /  31.5 km/h 48 % 0.00 in /  0 mm
09:26 38.4 °F /  3.6 °C 20.4 °F /  -6.4 °C 30.11 in /  1019.5 hPa NW 7.5 mph /  12.1 km/h 18.4 mph /  29.6 km/h 48 % 0.00 in /  0 mm
09:31 38.4 °F /  3.6 °C 20.9 °F /  -6.2 °C 30.11 in /  1019.5 hPa WNW 8.9 mph /  14.3 km/h 12.7 mph /  20.4 km/h 49 % 0.00 in /  0 mm
09:36 38.5 °F /  3.6 °C 21.0 °F /  -6.1 °C 30.11 in /  1019.5 hPa NW 7.0 mph /  11.3 km/h 17.3 mph /  27.8 km/h 49 % 0.00 in /  0 mm
09:41 38.7 °F /  3.7 °C 20.7 °F /  -6.3 °C 30.11 in /  1019.5 hPa NW 7.3 mph /  11.7 km/h 15.0 mph /  24.1 km/h 48 % 0.00 in /  0 mm
09:46 38.9 °F /  3.8 °C 20.9 °F /  -6.2 °C 30.11 in /  1019.5 hPa West 8.1 mph /  13 km/h 11.5 mph /  18.5 km/h 48 % 0.00 in /  0 mm
09:51 39.3 °F /  4.1 °C 21.7 °F /  -5.7 °C 30.11 in /  1019.5 hPa NW 4.3 mph /  6.9 km/h 10.4 mph /  16.7 km/h 49 % 0.00 in /  0 mm
09:56 39.6 °F /  4.2 °C 20.5 °F /  -6.4 °C 30.11 in /  1019.5 hPa WNW 4.5 mph /  7.2 km/h 12.7 mph /  20.4 km/h 46 % 0.00 in /  0 mm
10:01 39.9 °F /  4.4 °C 20.8 °F /  -6.2 °C 30.11 in /  1019.5 hPa West 6.7 mph /  10.8 km/h 15.0 mph /  24.1 km/h 46 % 0.00 in /  0 mm
10:06 40.1 °F /  4.5 °C 21.0 °F /  -6.1 °C 30.12 in /  1019.9 hPa NW 8.2 mph /  13.2 km/h 12.7 mph /  20.4 km/h 46 % 0.00 in /  0 mm
10:11 40.2 °F /  4.6 °C 21.0 °F /  -6.1 °C 30.11 in /  1019.5 hPa WNW 6.2 mph /  10 km/h 11.5 mph /  18.5 km/h 46 % 0.00 in /  0 mm
10:16 40.2 °F /  4.6 °C 21.0 °F /  -6.1 °C 30.12 in /  1019.9 hPa NNW 4.3 mph /  6.9 km/h 11.5 mph /  18.5 km/h 46 % 0.00 in /  0 mm
10:18 40.4 °F /  4.7 °C 21.7 °F /  -5.7 °C 30.11 in /  1019.5 hPa WNW 3.6 mph /  5.8 km/h 8.1 mph /  13 km/h 47 % 0.00 in /  0 mm
10:23 40.7 °F /  4.8 °C 21.5 °F /  -5.8 °C 30.12 in /  1019.9 hPa West 6.6 mph /  10.6 km/h 11.5 mph /  18.5 km/h 46 % 0.00 in /  0 mm
10:28 40.9 °F /  4.9 °C 21.7 °F /  -5.7 °C 30.12 in /  1019.9 hPa NNW 3.4 mph /  5.5 km/h 9.2 mph /  14.8 km/h 46 % 0.00 in /  0 mm
10:33 41.1 °F /  5.1 °C 21.9 °F /  -5.6 °C 30.12 in /  1019.9 hPa NW 8.6 mph /  13.8 km/h 17.3 mph /  27.8 km/h 46 % 0.00 in /  0 mm
10:38 41.1 °F /  5.1 °C 21.9 °F /  -5.6 °C 30.12 in /  1019.9 hPa NW 5.5 mph /  8.9 km/h 12.0 mph /  19.3 km/h 46 % 0.00 in /  0 mm
10:43 41.2 °F /  5.1 °C 22.0 °F /  -5.6 °C 30.12 in /  1019.9 hPa WNW 7.5 mph /  12.1 km/h 11.5 mph /  18.5 km/h 46 % 0.00 in /  0 mm
10:48 41.4 °F /  5.2 °C 22.1 °F /  -5.5 °C 30.12 in /  1019.9 hPa West 6.9 mph /  11.1 km/h 12.0 mph /  19.3 km/h 46 % 0.00 in /  0 mm
10:53 41.5 °F /  5.3 °C 21.7 °F /  -5.7 °C 30.11 in /  1019.5 hPa WNW 5.9 mph /  9.5 km/h 12.0 mph /  19.3 km/h 45 % 0.00 in /  0 mm
10:58 41.5 °F /  5.3 °C 21.7 °F /  -5.7 °C 30.11 in /  1019.5 hPa WSW 7.3 mph /  11.7 km/h 13.8 mph /  22.2 km/h 45 % 0.00 in /  0 mm
11:03 41.6 °F /  5.3 °C 21.8 °F /  -5.7 °C 30.12 in /  1019.9 hPa NNW 5.0 mph /  8 km/h 10.4 mph /  16.7 km/h 45 % 0.00 in /  0 mm
11:08 41.5 °F /  5.3 °C 21.7 °F /  -5.7 °C 30.12 in /  1019.9 hPa SW 5.5 mph /  8.9 km/h 11.0 mph /  17.7 km/h 45 % 0.00 in /  0 mm
11:13 41.4 °F /  5.2 °C 21.1 °F /  -6.1 °C 30.11 in /  1019.5 hPa WSW 7.5 mph /  12.1 km/h 13.8 mph /  22.2 km/h 44 % 0.00 in /  0 mm
11:18 41.5 °F /  5.3 °C 22.2 °F /  -5.4 °C 30.11 in /  1019.5 hPa NW 3.3 mph /  5.3 km/h 5.0 mph /  8 km/h 46 % 0.00 in /  0 mm
11:23 41.8 °F /  5.4 °C 23.0 °F /  -5 °C 30.11 in /  1019.5 hPa WNW 5.0 mph /  8 km/h 12.0 mph /  19.3 km/h 47 % 0.00 in /  0 mm
11:28 42.0 °F /  5.6 °C 22.2 °F /  -5.4 °C 30.11 in /  1019.5 hPa NW 7.0 mph /  11.3 km/h 13.0 mph /  20.9 km/h 45 % 0.00 in /  0 mm
11:33 42.0 °F /  5.6 °C 21.6 °F /  -5.8 °C 30.11 in /  1019.5 hPa NNW 3.7 mph /  6 km/h 9.2 mph /  14.8 km/h 44 % 0.00 in /  0 mm
11:38 42.2 °F /  5.7 °C 22.3 °F /  -5.4 °C 30.10 in /  1019.2 hPa NW 6.0 mph /  9.7 km/h 12.0 mph /  19.3 km/h 45 % 0.00 in /  0 mm
11:43 42.1 °F /  5.6 °C 21.7 °F /  -5.7 °C 30.10 in /  1019.2 hPa WNW 7.0 mph /  11.3 km/h 16.0 mph /  25.7 km/h 44 % 0.00 in /  0 mm
11:48 41.9 °F /  5.5 °C 21.0 °F /  -6.1 °C 30.11 in /  1019.5 hPa WNW 5.0 mph /  8 km/h 12.0 mph /  19.3 km/h 43 % 0.00 in /  0 mm
11:53 41.8 °F /  5.4 °C 22.5 °F /  -5.3 °C 30.10 in /  1019.2 hPa West 5.3 mph /  8.5 km/h 9.2 mph /  14.8 km/h 46 % 0.00 in /  0 mm
11:58 41.8 °F /  5.4 °C 23.0 °F /  -5 °C 30.10 in /  1019.2 hPa WNW 5.5 mph /  8.9 km/h 11.0 mph /  17.7 km/h 47 % 0.00 in /  0 mm
12:03 41.7 °F /  5.4 °C 21.9 °F /  -5.6 °C 30.10 in /  1019.2 hPa NW 5.0 mph /  8 km/h 12.0 mph /  19.3 km/h 45 % 0.00 in /  0 mm
12:08 41.8 °F /  5.4 °C 22.0 °F /  -5.6 °C 30.09 in /  1018.8 hPa NW 5.0 mph /  8 km/h 9.0 mph /  14.5 km/h 45 % 0.00 in /  0 mm
12:13 41.9 °F /  5.5 °C 22.1 °F /  -5.5 °C 30.09 in /  1018.8 hPa NW 6.0 mph /  9.7 km/h 13.0 mph /  20.9 km/h 45 % 0.00 in /  0 mm
12:18 41.9 °F /  5.5 °C 21.0 °F /  -6.1 °C 30.09 in /  1018.8 hPa WNW 7.0 mph /  11.3 km/h 12.0 mph /  19.3 km/h 43 % 0.00 in /  0 mm
12:23 42.0 °F /  5.6 °C 22.2 °F /  -5.4 °C 30.08 in /  1018.5 hPa WNW 6.0 mph /  9.7 km/h 10.0 mph /  16.1 km/h 45 % 0.00 in /  0 mm
12:28 42.2 °F /  5.7 °C 22.9 °F /  -5.1 °C 30.08 in /  1018.5 hPa NW 3.0 mph /  4.8 km/h 12.0 mph /  19.3 km/h 46 % 0.00 in /  0 mm
12:33 42.4 °F /  5.8 °C 23.1 °F /  -4.9 °C 30.08 in /  1018.5 hPa NW 6.0 mph /  9.7 km/h 9.0 mph /  14.5 km/h 46 % 0.00 in /  0 mm
12:38 42.6 °F /  5.9 °C 23.2 °F /  -4.9 °C 30.08 in /  1018.5 hPa WNW 2.0 mph /  3.2 km/h 7.0 mph /  11.3 km/h 46 % 0.00 in /  0 mm
12:43 42.8 °F /  6 °C 23.4 °F /  -4.8 °C 30.08 in /  1018.5 hPa WNW 6.0 mph /  9.7 km/h 12.0 mph /  19.3 km/h 46 % 0.00 in /  0 mm
12:48 42.7 °F /  5.9 °C 22.3 °F /  -5.4 °C 30.08 in /  1018.5 hPa WNW 7.0 mph /  11.3 km/h 12.0 mph /  19.3 km/h 44 % 0.00 in /  0 mm
12:53 42.7 °F /  5.9 °C 22.8 °F /  -5.1 °C 30.08 in /  1018.5 hPa WNW 3.0 mph /  4.8 km/h 12.0 mph /  19.3 km/h 45 % 0.00 in /  0 mm
12:58 42.8 °F /  6 °C 22.9 °F /  -5.1 °C 30.08 in /  1018.5 hPa NNW 3.3 mph /  5.3 km/h 7.0 mph /  11.3 km/h 45 % 0.00 in /  0 mm
13:03 43.1 °F /  6.2 °C 23.2 °F /  -4.9 °C 30.08 in /  1018.5 hPa NW 5.0 mph /  8 km/h 9.0 mph /  14.5 km/h 45 % 0.00 in /  0 mm
13:08 43.3 °F /  6.3 °C 23.4 °F /  -4.8 °C 30.08 in /  1018.5 hPa NW 5.0 mph /  8 km/h 7.0 mph /  11.3 km/h 45 % 0.00 in /  0 mm
13:13 43.5 °F /  6.4 °C 23.6 °F /  -4.7 °C 30.08 in /  1018.5 hPa NW 5.0 mph /  8 km/h 7.0 mph /  11.3 km/h 45 % 0.00 in /  0 mm
13:18 43.6 °F /  6.4 °C 23.6 °F /  -4.7 °C 30.07 in /  1018.2 hPa NW 5.0 mph /  8 km/h 8.0 mph /  12.9 km/h 45 % 0.00 in /  0 mm
13:23 43.8 °F /  6.6 °C 22.2 °F /  -5.4 °C 30.08 in /  1018.5 hPa NW 7.0 mph /  11.3 km/h 12.0 mph /  19.3 km/h 42 % 0.00 in /  0 mm
13:28 43.7 °F /  6.5 °C 22.1 °F /  -5.5 °C 30.07 in /  1018.2 hPa WNW 6.0 mph /  9.7 km/h 9.0 mph /  14.5 km/h 42 % 0.00 in /  0 mm
13:33 43.6 °F /  6.4 °C 22.0 °F /  -5.6 °C 30.07 in /  1018.2 hPa WNW 5.0 mph /  8 km/h 10.0 mph /  16.1 km/h 42 % 0.00 in /  0 mm
13:38 43.4 °F /  6.3 °C 21.8 °F /  -5.7 °C 30.07 in /  1018.2 hPa WNW 1.0 mph /  1.6 km/h 8.0 mph /  12.9 km/h 42 % 0.00 in /  0 mm
13:43 43.4 °F /  6.3 °C 22.3 °F /  -5.4 °C 30.07 in /  1018.2 hPa WNW 3.0 mph /  4.8 km/h 9.0 mph /  14.5 km/h 43 % 0.00 in /  0 mm
13:48 43.6 °F /  6.4 °C 22.5 °F /  -5.3 °C 30.07 in /  1018.2 hPa WNW 2.0 mph /  3.2 km/h 9.0 mph /  14.5 km/h 43 % 0.00 in /  0 mm
13:53 43.7 °F /  6.5 °C 22.1 °F /  -5.5 °C 30.07 in /  1018.2 hPa WNW 6.0 mph /  9.7 km/h 12.0 mph /  19.3 km/h 42 % 0.00 in /  0 mm
13:58 44.0 °F /  6.7 °C 22.4 °F /  -5.3 °C 30.07 in /  1018.2 hPa WNW 2.4 mph /  3.9 km/h 6.0 mph /  9.7 km/h 42 % 0.00 in /  0 mm
14:03 44.0 °F /  6.7 °C 21.8 °F /  -5.7 °C 30.06 in /  1017.8 hPa NW 4.2 mph /  6.8 km/h 8.1 mph /  13 km/h 41 % 0.00 in /  0 mm
14:08 44.1 °F /  6.7 °C 21.9 °F /  -5.6 °C 30.05 in /  1017.5 hPa SW 3.7 mph /  6 km/h 6.9 mph /  11.1 km/h 41 % 0.00 in /  0 mm
14:13 44.2 °F /  6.8 °C 22.0 °F /  -5.6 °C 30.06 in /  1017.8 hPa WNW 1.7 mph /  2.7 km/h 5.8 mph /  9.3 km/h 41 % 0.00 in /  0 mm
14:19 44.3 °F /  6.8 °C 22.6 °F /  -5.2 °C 30.06 in /  1017.8 hPa SW 3.5 mph /  5.6 km/h 5.0 mph /  8 km/h 42 % 0.00 in /  0 mm
14:24 44.5 °F /  6.9 °C 22.2 °F /  -5.4 °C 30.06 in /  1017.8 hPa West 3.1 mph /  5 km/h 5.8 mph /  9.3 km/h 41 % 0.00 in /  0 mm
14:29 44.6 °F /  7 °C 22.9 °F /  -5.1 °C 30.05 in /  1017.5 hPa SW 3.2 mph /  5.1 km/h 3.5 mph /  5.6 km/h 42 % 0.00 in /  0 mm
14:34 44.7 °F /  7.1 °C 22.4 °F /  -5.3 °C 30.05 in /  1017.5 hPa West 0.3 mph /  0.5 km/h 3.5 mph /  5.6 km/h 41 % 0.00 in /  0 mm
14:39 44.5 °F /  6.9 °C 22.2 °F /  -5.4 °C 30.06 in /  1017.8 hPa WSW 3.9 mph /  6.3 km/h 5.8 mph /  9.3 km/h 41 % 0.00 in /  0 mm
14:44 44.4 °F /  6.9 °C 22.7 °F /  -5.2 °C 30.06 in /  1017.8 hPa West 2.9 mph /  4.7 km/h 6.9 mph /  11.1 km/h 42 % 0.00 in /  0 mm
14:49 44.3 °F /  6.8 °C 22.6 °F /  -5.2 °C 30.06 in /  1017.8 hPa WSW 1.5 mph /  2.4 km/h 4.6 mph /  7.4 km/h 42 % 0.00 in /  0 mm
14:54 44.1 °F /  6.7 °C 22.4 °F /  -5.3 °C 30.06 in /  1017.8 hPa West 1.4 mph /  2.3 km/h 3.5 mph /  5.6 km/h 42 % 0.00 in /  0 mm
14:59 44.0 °F /  6.7 °C 22.9 °F /  -5.1 °C 30.06 in /  1017.8 hPa WNW 0.7 mph /  1.1 km/h 2.3 mph /  3.7 km/h 43 % 0.00 in /  0 mm
15:04 43.9 °F /  6.6 °C 22.8 °F /  -5.1 °C 30.06 in /  1017.8 hPa NW 1.1 mph /  1.8 km/h 3.0 mph /  4.8 km/h 43 % 0.00 in /  0 mm
15:09 43.6 °F /  6.4 °C 24.2 °F /  -4.3 °C 30.05 in /  1017.5 hPa North 1.8 mph /  2.9 km/h 3.5 mph /  5.6 km/h 46 % 0.00 in /  0 mm
15:14 43.5 °F /  6.4 °C 24.1 °F /  -4.4 °C 30.05 in /  1017.5 hPa North 2.5 mph /  4 km/h 5.0 mph /  8 km/h 46 % 0.00 in /  0 mm
15:19 43.4 °F /  6.3 °C 23.4 °F /  -4.8 °C 30.05 in /  1017.5 hPa NNW 2.0 mph /  3.2 km/h 2.3 mph /  3.7 km/h 45 % 0.00 in /  0 mm
15:24 43.3 °F /  6.3 °C 23.4 °F /  -4.8 °C 30.05 in /  1017.5 hPa NNW 1.6 mph /  2.6 km/h 3.5 mph /  5.6 km/h 45 % 0.00 in /  0 mm
15:29 43.3 °F /  6.3 °C 23.4 °F /  -4.8 °C 30.05 in /  1017.5 hPa Calm   3.5 mph /  5.6 km/h 45 % 0.00 in /  0 mm
15:34 43.2 °F /  6.2 °C 23.3 °F /  -4.8 °C 30.05 in /  1017.5 hPa WNW 2.1 mph /  3.4 km/h 2.3 mph /  3.7 km/h 45 % 0.00 in /  0 mm
15:39 43.2 °F /  6.2 °C 23.3 °F /  -4.8 °C 30.04 in /  1017.2 hPa WNW 1.9 mph /  3.1 km/h 3.5 mph /  5.6 km/h 45 % 0.00 in /  0 mm
15:44 43.3 °F /  6.3 °C 23.4 °F /  -4.8 °C 30.04 in /  1017.2 hPa SW 2.0 mph /  3.2 km/h 3.5 mph /  5.6 km/h 45 % 0.00 in /  0 mm
15:49 43.3 °F /  6.3 °C 22.8 °F /  -5.1 °C 30.04 in /  1017.2 hPa WSW 2.2 mph /  3.5 km/h 4.0 mph /  6.4 km/h 44 % 0.00 in /  0 mm
15:54 43.4 °F /  6.3 °C 23.4 °F /  -4.8 °C 30.04 in /  1017.2 hPa WSW 2.2 mph /  3.5 km/h 3.5 mph /  5.6 km/h 45 % 0.00 in /  0 mm
15:59 43.5 °F /  6.4 °C 23.5 °F /  -4.7 °C 30.05 in /  1017.5 hPa Calm   3.5 mph /  5.6 km/h 45 % 0.00 in /  0 mm
16:04 43.6 °F /  6.4 °C 24.2 °F /  -4.3 °C 30.04 in /  1017.2 hPa NW 0.3 mph /  0.5 km/h 1.2 mph /  1.9 km/h 46 % 0.00 in /  0 mm
16:09 43.6 °F /  6.4 °C 23.6 °F /  -4.7 °C 30.04 in /  1017.2 hPa Calm   1.2 mph /  1.9 km/h 45 % 0.00 in /  0 mm
16:14 43.7 °F /  6.5 °C 23.7 °F /  -4.6 °C 30.05 in /  1017.5 hPa WNW 1.7 mph /  2.7 km/h 3.5 mph /  5.6 km/h 45 % 0.00 in /  0 mm
16:19 43.7 °F /  6.5 °C 23.7 °F /  -4.6 °C 30.05 in /  1017.5 hPa WNW 1.9 mph /  3.1 km/h 3.5 mph /  5.6 km/h 45 % 0.00 in /  0 mm
16:25 43.7 °F /  6.5 °C 24.2 °F /  -4.3 °C 30.05 in /  1017.5 hPa Calm     46 % 0.00 in /  0 mm
16:30 43.6 °F /  6.4 °C 25.7 °F /  -3.5 °C 30.04 in /  1017.2 hPa WNW 0.1 mph /  0.2 km/h 1.2 mph /  1.9 km/h 49 % 0.00 in /  0 mm
16:35 43.5 °F /  6.4 °C 25.1 °F /  -3.8 °C 30.04 in /  1017.2 hPa Calm     48 % 0.00 in /  0 mm
16:40 43.3 °F /  6.3 °C 25.4 °F /  -3.7 °C 30.04 in /  1017.2 hPa Calm     49 % 0.00 in /  0 mm
16:45 43.2 °F /  6.2 °C 26.3 °F /  -3.2 °C 30.04 in /  1017.2 hPa WNW 0.3 mph /  0.5 km/h 1.2 mph /  1.9 km/h 51 % 0.00 in /  0 mm
16:50 42.9 °F /  6.1 °C 25.5 °F /  -3.6 °C 30.04 in /  1017.2 hPa Calm     50 % 0.00 in /  0 mm
16:55 42.7 °F /  5.9 °C 25.3 °F /  -3.7 °C 30.04 in /  1017.2 hPa Calm     50 % 0.00 in /  0 mm
17:00 42.5 °F /  5.8 °C 25.1 °F /  -3.8 °C 30.04 in /  1017.2 hPa Calm     50 % 0.00 in /  0 mm
17:05 42.3 °F /  5.7 °C 25.0 °F /  -3.9 °C 30.04 in /  1017.2 hPa Calm     50 % 0.00 in /  0 mm
17:10 42.1 °F /  5.6 °C 24.8 °F /  -4 °C 30.04 in /  1017.2 hPa Calm     50 % 0.00 in /  0 mm
17:15 41.9 °F /  5.5 °C 24.6 °F /  -4.1 °C 30.04 in /  1017.2 hPa Calm     50 % 0.00 in /  0 mm
17:20 41.7 °F /  5.4 °C 24.4 °F /  -4.2 °C 30.04 in /  1017.2 hPa Calm     50 % 0.00 in /  0 mm
17:30 41.1 °F /  5.1 °C 25.3 °F /  -3.7 °C 30.04 in /  1017.2 hPa SW 1.9 mph /  3.1 km/h 3.5 mph /  5.6 km/h 53 % 0.00 in /  0 mm
17:35 40.6 °F /  4.8 °C 26.5 °F /  -3.1 °C 30.04 in /  1017.2 hPa SSW 3.6 mph /  5.8 km/h 6.9 mph /  11.1 km/h 57 % 0.00 in /  0 mm
17:40 40.3 °F /  4.6 °C 28.7 °F /  -1.8 °C 30.05 in /  1017.5 hPa SSW 7.2 mph /  11.6 km/h 10.4 mph /  16.7 km/h 63 % 0.00 in /  0 mm
17:43 40.3 °F /  4.6 °C 29.1 °F /  -1.6 °C 30.06 in /  1017.8 hPa SSE 4.5 mph /  7.2 km/h 8.1 mph /  13 km/h 64 % 0.00 in /  0 mm
17:48 40.3 °F /  4.6 °C 29.5 °F /  -1.4 °C 30.06 in /  1017.8 hPa South 4.3 mph /  6.9 km/h 9.0 mph /  14.5 km/h 65 % 0.00 in /  0 mm
17:53 40.3 °F /  4.6 °C 29.5 °F /  -1.4 °C 30.06 in /  1017.8 hPa SSW 3.1 mph /  5 km/h 4.6 mph /  7.4 km/h 65 % 0.00 in /  0 mm
17:58 40.2 °F /  4.6 °C 29.4 °F /  -1.4 °C 30.06 in /  1017.8 hPa SSW 2.4 mph /  3.9 km/h 5.8 mph /  9.3 km/h 65 % 0.00 in /  0 mm
18:03 40.1 °F /  4.5 °C 29.3 °F /  -1.5 °C 30.06 in /  1017.8 hPa South 2.4 mph /  3.9 km/h 5.0 mph /  8 km/h 65 % 0.00 in /  0 mm
18:08 40.1 °F /  4.5 °C 29.3 °F /  -1.5 °C 30.06 in /  1017.8 hPa SSW 1.5 mph /  2.4 km/h 3.5 mph /  5.6 km/h 65 % 0.00 in /  0 mm
18:13 40.0 °F /  4.4 °C 29.6 °F /  -1.3 °C 30.06 in /  1017.8 hPa South 2.5 mph /  4 km/h 4.6 mph /  7.4 km/h 66 % 0.00 in /  0 mm
18:18 39.9 °F /  4.4 °C 29.5 °F /  -1.4 °C 30.05 in /  1017.5 hPa South 2.7 mph /  4.3 km/h 6.0 mph /  9.7 km/h 66 % 0.00 in /  0 mm
18:23 39.8 °F /  4.3 °C 29.4 °F /  -1.4 °C 30.05 in /  1017.5 hPa SSW 0.7 mph /  1.1 km/h 3.5 mph /  5.6 km/h 66 % 0.00 in /  0 mm
18:28 39.7 °F /  4.3 °C 29.6 °F /  -1.3 °C 30.06 in /  1017.8 hPa SE 1.3 mph /  2.1 km/h 3.5 mph /  5.6 km/h 67 % 0.00 in /  0 mm
18:33 39.5 °F /  4.2 °C 29.8 °F /  -1.2 °C 30.05 in /  1017.5 hPa South 1.1 mph /  1.8 km/h 5.8 mph /  9.3 km/h 68 % 0.00 in /  0 mm
18:38 39.4 °F /  4.1 °C 30.1 °F /  -1.1 °C 30.05 in /  1017.5 hPa South 0.8 mph /  1.3 km/h 2.3 mph /  3.7 km/h 69 % 0.00 in /  0 mm
18:43 39.3 °F /  4.1 °C 30.0 °F /  -1.1 °C 30.05 in /  1017.5 hPa South 2.9 mph /  4.7 km/h 4.6 mph /  7.4 km/h 69 % 0.00 in /  0 mm
18:48 39.2 °F /  4 °C 30.2 °F /  -1 °C 30.06 in /  1017.8 hPa SE 0.9 mph /  1.4 km/h 3.5 mph /  5.6 km/h 70 % 0.00 in /  0 mm
18:53 39.1 °F /  3.9 °C 30.1 °F /  -1.1 °C 30.06 in /  1017.8 hPa SSW 1.3 mph /  2.1 km/h 4.6 mph /  7.4 km/h 70 % 0.00 in /  0 mm
18:58 39.0 °F /  3.9 °C 30.0 °F /  -1.1 °C 30.06 in /  1017.8 hPa SSW 2.4 mph /  3.9 km/h 4.0 mph /  6.4 km/h 70 % 0.00 in /  0 mm
19:00 38.9 °F /  3.8 °C 29.9 °F /  -1.2 °C 30.06 in /  1017.8 hPa SSW 1.5 mph /  2.4 km/h 4.6 mph /  7.4 km/h 70 % 0.00 in /  0 mm
19:06 38.8 °F /  3.8 °C 30.2 °F /  -1 °C 30.06 in /  1017.8 hPa SSW 1.1 mph /  1.8 km/h 4.6 mph /  7.4 km/h 71 % 0.00 in /  0 mm
19:11 38.7 °F /  3.7 °C 30.1 °F /  -1.1 °C 30.06 in /  1017.8 hPa SSW 1.5 mph /  2.4 km/h 3.5 mph /  5.6 km/h 71 % 0.00 in /  0 mm
19:16 38.6 °F /  3.7 °C 30.0 °F /  -1.1 °C 30.06 in /  1017.8 hPa South 1.8 mph /  2.9 km/h 3.5 mph /  5.6 km/h 71 % 0.00 in /  0 mm
19:21 38.5 °F /  3.6 °C 30.3 °F /  -0.9 °C 30.06 in /  1017.8 hPa SSE 0.7 mph /  1.1 km/h 3.5 mph /  5.6 km/h 72 % 0.00 in /  0 mm
19:26 38.4 °F /  3.6 °C 30.5 °F /  -0.8 °C 30.06 in /  1017.8 hPa South 1.0 mph /  1.6 km/h 3.5 mph /  5.6 km/h 73 % 0.00 in /  0 mm
19:31 38.3 °F /  3.5 °C 30.4 °F /  -0.9 °C 30.06 in /  1017.8 hPa South 2.9 mph /  4.7 km/h 6.9 mph /  11.1 km/h 73 % 0.00 in /  0 mm
19:36 38.2 °F /  3.4 °C 30.6 °F /  -0.8 °C 30.05 in /  1017.5 hPa SSE 2.0 mph /  3.2 km/h 4.6 mph /  7.4 km/h 74 % 0.00 in /  0 mm
19:41 38.2 °F /  3.4 °C 31.0 °F /  -0.6 °C 30.06 in /  1017.8 hPa South 1.6 mph /  2.6 km/h 4.6 mph /  7.4 km/h 75 % 0.00 in /  0 mm
19:46 38.1 °F /  3.4 °C 31.2 °F /  -0.4 °C 30.05 in /  1017.5 hPa South 2.2 mph /  3.5 km/h 4.6 mph /  7.4 km/h 76 % 0.00 in /  0 mm
19:51 38.1 °F /  3.4 °C 31.2 °F /  -0.4 °C 30.05 in /  1017.5 hPa SSW 1.1 mph /  1.8 km/h 3.5 mph /  5.6 km/h 76 % 0.00 in /  0 mm
19:56 38.1 °F /  3.4 °C 31.5 °F /  -0.3 °C 30.05 in /  1017.5 hPa South 2.6 mph /  4.2 km/h 4.6 mph /  7.4 km/h 77 % 0.00 in /  0 mm
20:01 38.1 °F /  3.4 °C 31.5 °F /  -0.3 °C 30.05 in /  1017.5 hPa South 3.6 mph /  5.8 km/h 4.6 mph /  7.4 km/h 77 % 0.00 in /  0 mm
20:06 38.1 °F /  3.4 °C 31.8 °F /  -0.1 °C 30.04 in /  1017.2 hPa South 4.2 mph /  6.8 km/h 6.9 mph /  11.1 km/h 78 % 0.00 in /  0 mm
20:11 38.1 °F /  3.4 °C 31.8 °F /  -0.1 °C 30.04 in /  1017.2 hPa South 3.0 mph /  4.8 km/h 5.8 mph /  9.3 km/h 78 % 0.00 in /  0 mm
20:16 38.1 °F /  3.4 °C 32.2 °F /  0.1 °C 30.04 in /  1017.2 hPa South 4.0 mph /  6.4 km/h 6.9 mph /  11.1 km/h 79 % 0.00 in /  0 mm
20:21 38.1 °F /  3.4 °C 32.5 °F /  0.3 °C 30.04 in /  1017.2 hPa South 5.8 mph /  9.3 km/h 9.2 mph /  14.8 km/h 80 % 0.00 in /  0 mm
20:24 38.2 °F /  3.4 °C 32.6 °F /  0.3 °C 30.04 in /  1017.2 hPa SSW 1.9 mph /  3.1 km/h 6.9 mph /  11.1 km/h 80 % 0.00 in /  0 mm
20:29 38.3 °F /  3.5 °C 33.0 °F /  0.6 °C 30.04 in /  1017.2 hPa South 2.5 mph /  4 km/h 6.9 mph /  11.1 km/h 81 % 0.00 in /  0 mm
20:35 38.3 °F /  3.5 °C 33.0 °F /  0.6 °C 30.04 in /  1017.2 hPa SSE 2.3 mph /  3.7 km/h 6.9 mph /  11.1 km/h 81 % 0.00 in /  0 mm
20:40 38.4 °F /  3.6 °C 33.1 °F /  0.6 °C 30.04 in /  1017.2 hPa SSE 3.7 mph /  6 km/h 5.8 mph /  9.3 km/h 81 % 0.00 in /  0 mm
20:45 38.5 °F /  3.6 °C 33.5 °F /  0.8 °C 30.04 in /  1017.2 hPa South 1.4 mph /  2.3 km/h 3.5 mph /  5.6 km/h 82 % 0.00 in /  0 mm
20:50 38.5 °F /  3.6 °C 33.5 °F /  0.8 °C 30.03 in /  1016.8 hPa South 2.8 mph /  4.5 km/h 5.8 mph /  9.3 km/h 82 % 0.00 in /  0 mm
20:55 38.6 °F /  3.7 °C 33.9 °F /  1.1 °C 30.03 in /  1016.8 hPa SSW 2.5 mph /  4 km/h 5.0 mph /  8 km/h 83 % 0.00 in /  0 mm
21:00 38.6 °F /  3.7 °C 33.9 °F /  1.1 °C 30.03 in /  1016.8 hPa South 1.5 mph /  2.4 km/h 3.0 mph /  4.8 km/h 83 % 0.00 in /  0 mm
21:05 38.6 °F /  3.7 °C 33.9 °F /  1.1 °C 30.03 in /  1016.8 hPa South 2.8 mph /  4.5 km/h 4.6 mph /  7.4 km/h 83 % 0.00 in /  0 mm
21:10 38.6 °F /  3.7 °C 33.9 °F /  1.1 °C 30.03 in /  1016.8 hPa South 2.9 mph /  4.7 km/h 5.8 mph /  9.3 km/h 83 % 0.00 in /  0 mm
21:15 38.6 °F /  3.7 °C 33.9 °F /  1.1 °C 30.02 in /  1016.5 hPa South 2.2 mph /  3.5 km/h 3.5 mph /  5.6 km/h 83 % 0.00 in /  0 mm
21:20 38.6 °F /  3.7 °C 34.2 °F /  1.2 °C 30.02 in /  1016.5 hPa South 3.4 mph /  5.5 km/h 5.0 mph /  8 km/h 84 % 0.00 in /  0 mm
21:25 38.6 °F /  3.7 °C 34.2 °F /  1.2 °C 30.02 in /  1016.5 hPa South 2.4 mph /  3.9 km/h 6.0 mph /  9.7 km/h 84 % 0.00 in /  0 mm
21:30 38.7 °F /  3.7 °C 34.3 °F /  1.3 °C 30.02 in /  1016.5 hPa South 3.8 mph /  6.1 km/h 6.9 mph /  11.1 km/h 84 % 0.00 in /  0 mm
21:35 38.6 °F /  3.7 °C 34.5 °F /  1.4 °C 30.02 in /  1016.5 hPa SSW 3.2 mph /  5.1 km/h 6.9 mph /  11.1 km/h 85 % 0.00 in /  0 mm
21:40 38.7 °F /  3.7 °C 34.6 °F /  1.4 °C 30.02 in /  1016.5 hPa South 3.9 mph /  6.3 km/h 5.8 mph /  9.3 km/h 85 % 0.00 in /  0 mm
21:45 38.7 °F /  3.7 °C 34.6 °F /  1.4 °C 30.02 in /  1016.5 hPa South 4.5 mph /  7.2 km/h 5.8 mph /  9.3 km/h 85 % 0.00 in /  0 mm
21:50 38.7 °F /  3.7 °C 34.9 °F /  1.6 °C 30.02 in /  1016.5 hPa SSW 1.4 mph /  2.3 km/h 4.6 mph /  7.4 km/h 86 % 0.00 in /  0 mm
21:55 38.8 °F /  3.8 °C 35.0 °F /  1.7 °C 30.02 in /  1016.5 hPa South 4.2 mph /  6.8 km/h 8.1 mph /  13 km/h 86 % 0.00 in /  0 mm
22:00 38.8 °F /  3.8 °C 35.0 °F /  1.7 °C 30.02 in /  1016.5 hPa South 2.8 mph /  4.5 km/h 6.9 mph /  11.1 km/h 86 % 0.00 in /  0 mm
22:05 38.8 °F /  3.8 °C 35.0 °F /  1.7 °C 30.01 in /  1016.1 hPa SSW 4.0 mph /  6.4 km/h 5.8 mph /  9.3 km/h 86 % 0.00 in /  0 mm
22:10 38.7 °F /  3.7 °C 34.9 °F /  1.6 °C 30.01 in /  1016.1 hPa South 2.9 mph /  4.7 km/h 5.8 mph /  9.3 km/h 86 % 0.00 in /  0 mm
22:15 38.7 °F /  3.7 °C 35.2 °F /  1.8 °C 30.01 in /  1016.1 hPa South 4.1 mph /  6.6 km/h 4.6 mph /  7.4 km/h 87 % 0.00 in /  0 mm
22:20 38.7 °F /  3.7 °C 35.2 °F /  1.8 °C 30.01 in /  1016.1 hPa South 2.3 mph /  3.7 km/h 3.5 mph /  5.6 km/h 87 % 0.00 in /  0 mm
22:26 38.7 °F /  3.7 °C 35.2 °F /  1.8 °C 30.01 in /  1016.1 hPa South 2.2 mph /  3.5 km/h 3.5 mph /  5.6 km/h 87 % 0.00 in /  0 mm
22:31 38.6 °F /  3.7 °C 35.1 °F /  1.7 °C 30.01 in /  1016.1 hPa South 2.0 mph /  3.2 km/h 4.6 mph /  7.4 km/h 87 % 0.00 in /  0 mm
22:36 38.6 °F /  3.7 °C 35.1 °F /  1.7 °C 30.01 in /  1016.1 hPa SW 1.2 mph /  1.9 km/h 3.5 mph /  5.6 km/h 87 % 0.00 in /  0 mm
22:41 38.6 °F /  3.7 °C 35.1 °F /  1.7 °C 30.01 in /  1016.1 hPa SW 1.3 mph /  2.1 km/h 3.5 mph /  5.6 km/h 87 % 0.00 in /  0 mm
22:46 38.5 °F /  3.6 °C 35.0 °F /  1.7 °C 30.01 in /  1016.1 hPa SW 1.0 mph /  1.6 km/h 2.3 mph /  3.7 km/h 87 % 0.00 in /  0 mm
22:51 38.5 °F /  3.6 °C 35.0 °F /  1.7 °C 30.01 in /  1016.1 hPa SSW 2.2 mph /  3.5 km/h 3.5 mph /  5.6 km/h 87 % 0.00 in /  0 mm
22:56 38.4 °F /  3.6 °C 34.9 °F /  1.6 °C 30.01 in /  1016.1 hPa SW 0.6 mph /  1 km/h 1.2 mph /  1.9 km/h 87 % 0.00 in /  0 mm
23:01 38.4 °F /  3.6 °C 34.6 °F /  1.4 °C 30.00 in /  1015.8 hPa SSW 0.6 mph /  1 km/h 1.2 mph /  1.9 km/h 86 % 0.00 in /  0 mm
23:06 38.4 °F /  3.6 °C 34.6 °F /  1.4 °C 30.00 in /  1015.8 hPa Calm   2.3 mph /  3.7 km/h 86 % 0.00 in /  0 mm
23:11 38.4 °F /  3.6 °C 34.6 °F /  1.4 °C 30.00 in /  1015.8 hPa SSW 0.6 mph /  1 km/h 1.2 mph /  1.9 km/h 86 % 0.00 in /  0 mm
23:16 38.4 °F /  3.6 °C 34.6 °F /  1.4 °C 30.00 in /  1015.8 hPa SSW 0.3 mph /  0.5 km/h 1.2 mph /  1.9 km/h 86 % 0.00 in /  0 mm
23:21 38.4 °F /  3.6 °C 34.6 °F /  1.4 °C 30.00 in /  1015.8 hPa SSW 0.3 mph /  0.5 km/h 2.0 mph /  3.2 km/h 86 % 0.00 in /  0 mm
23:26 38.4 °F /  3.6 °C 34.6 °F /  1.4 °C 30.00 in /  1015.8 hPa Calm   1.2 mph /  1.9 km/h 86 % 0.00 in /  0 mm
23:28 38.3 °F /  3.5 °C 34.5 °F /  1.4 °C 30.00 in /  1015.8 hPa SSW 0.1 mph /  0.2 km/h 1.2 mph /  1.9 km/h 86 % 0.00 in /  0 mm
23:33 38.3 °F /  3.5 °C 34.5 °F /  1.4 °C 30.00 in /  1015.8 hPa Calm     86 % 0.00 in /  0 mm
23:38 38.2 °F /  3.4 °C 34.4 °F /  1.3 °C 30.00 in /  1015.8 hPa SSW 0.3 mph /  0.5 km/h 1.2 mph /  1.9 km/h 86 % 0.00 in /  0 mm
23:43 38.2 °F /  3.4 °C 34.4 °F /  1.3 °C 30.00 in /  1015.8 hPa SSW 0.1 mph /  0.2 km/h 1.2 mph /  1.9 km/h 86 % 0.00 in /  0 mm
23:48 38.1 °F /  3.4 °C 34.3 °F /  1.3 °C 30.00 in /  1015.8 hPa SSW 0.7 mph /  1.1 km/h 1.2 mph /  1.9 km/h 86 % 0.00 in /  0 mm
23:53 38.0 °F /  3.3 °C 34.2 °F /  1.2 °C 30.00 in /  1015.8 hPa Calm     86 % 0.00 in /  0 mm
23:58 37.9 °F /  3.3 °C 34.1 °F /  1.2 °C 30.00 in /  1015.8 hPa Calm     86 % 0.00 in /  0 mm
Crab Meadow Weather
Compliments of Weather Underground - 3 mb

Script developed by  Jim McMurry - jmcmurry@mwt.net Adapted for the template by  Wim van der Kuil - Leuven-Template.eu

Recycling: To produce each week's Sunday newspapers, 500,000 trees must be cut down.